sensor_id;sensor_type;location;lat;lon;timestamp;pressure;altitude;pressure_sealevel;temperature;humidity
36828;BME280;22766;48.042;11.192;2024-03-25T00:00:47;94261.84;;;3.46;100.00
36828;BME280;22766;48.042;11.192;2024-03-25T00:03:13;94258.13;;;3.60;100.00
36828;BME280;22766;48.042;11.192;2024-03-25T00:05:39;94257.50;;;3.67;100.00
36828;BME280;22766;48.042;11.192;2024-03-25T00:08:05;94257.66;;;3.75;100.00
36828;BME280;22766;48.042;11.192;2024-03-25T00:10:31;94257.47;;;3.58;100.00
36828;BME280;22766;48.042;11.192;2024-03-25T00:12:57;94256.50;;;3.49;100.00
36828;BME280;22766;48.042;11.192;2024-03-25T00:15:22;94244.53;;;3.50;100.00
36828;BME280;22766;48.042;11.192;2024-03-25T00:17:51;94254.19;;;3.46;100.00
36828;BME280;22766;48.042;11.192;2024-03-25T00:20:17;94253.78;;;3.41;100.00
36828;BME280;22766;48.042;11.192;2024-03-25T00:22:43;94245.81;;;3.35;100.00
36828;BME280;22766;48.042;11.192;2024-03-25T00:25:10;94248.81;;;3.19;100.00
36828;BME280;22766;48.042;11.192;2024-03-25T00:27:35;94258.22;;;3.19;100.00
36828;BME280;22766;48.042;11.192;2024-03-25T00:30:01;94252.94;;;3.11;100.00
36828;BME280;22766;48.042;11.192;2024-03-25T00:32:27;94254.38;;;3.04;100.00
36828;BME280;22766;48.042;11.192;2024-03-25T00:34:53;94256.38;;;3.00;100.00
36828;BME280;22766;48.042;11.192;2024-03-25T00:37:19;94255.00;;;2.96;100.00
36828;BME280;22766;48.042;11.192;2024-03-25T00:39:45;94252.94;;;2.90;100.00
36828;BME280;22766;48.042;11.192;2024-03-25T00:42:11;94248.41;;;2.94;100.00
36828;BME280;22766;48.042;11.192;2024-03-25T00:44:36;94241.63;;;3.04;100.00
36828;BME280;22766;48.042;11.192;2024-03-25T00:47:02;94245.22;;;3.01;100.00
36828;BME280;22766;48.042;11.192;2024-03-25T00:49:28;94246.00;;;2.92;100.00
36828;BME280;22766;48.042;11.192;2024-03-25T00:51:55;94247.28;;;2.87;100.00
36828;BME280;22766;48.042;11.192;2024-03-25T00:54:21;94254.69;;;2.90;100.00
36828;BME280;22766;48.042;11.192;2024-03-25T00:56:49;94256.47;;;2.78;100.00
36828;BME280;22766;48.042;11.192;2024-03-25T00:59:17;94251.19;;;2.70;100.00
36828;BME280;22766;48.042;11.192;2024-03-25T01:01:43;94252.75;;;2.82;100.00
36828;BME280;22766;48.042;11.192;2024-03-25T01:04:09;94256.97;;;2.72;100.00
36828;BME280;22766;48.042;11.192;2024-03-25T01:06:34;94254.25;;;2.64;100.00
36828;BME280;22766;48.042;11.192;2024-03-25T01:09:00;94254.47;;;2.61;100.00
36828;BME280;22766;48.042;11.192;2024-03-25T01:11:27;94255.59;;;2.68;100.00
36828;BME280;22766;48.042;11.192;2024-03-25T01:13:52;94248.16;;;2.76;100.00
36828;BME280;22766;48.042;11.192;2024-03-25T01:16:18;94247.03;;;2.69;100.00
36828;BME280;22766;48.042;11.192;2024-03-25T01:18:44;94252.31;;;2.77;100.00
36828;BME280;22766;48.042;11.192;2024-03-25T01:21:10;94253.19;;;2.87;100.00
36828;BME280;22766;48.042;11.192;2024-03-25T01:23:35;94244.88;;;3.06;100.00
36828;BME280;22766;48.042;11.192;2024-03-25T01:26:01;94250.69;;;2.97;100.00
36828;BME280;22766;48.042;11.192;2024-03-25T01:28:27;94253.00;;;3.00;100.00
36828;BME280;22766;48.042;11.192;2024-03-25T01:30:53;94255.34;;;3.12;100.00
36828;BME280;22766;48.042;11.192;2024-03-25T01:33:19;94258.03;;;3.11;100.00
36828;BME280;22766;48.042;11.192;2024-03-25T01:35:45;94257.13;;;3.21;100.00
36828;BME280;22766;48.042;11.192;2024-03-25T01:38:11;94259.69;;;3.21;100.00
36828;BME280;22766;48.042;11.192;2024-03-25T01:40:37;94253.66;;;3.22;100.00
36828;BME280;22766;48.042;11.192;2024-03-25T01:43:03;94250.16;;;3.23;100.00
36828;BME280;22766;48.042;11.192;2024-03-25T01:45:31;94254.22;;;3.26;100.00
36828;BME280;22766;48.042;11.192;2024-03-25T01:47:58;94246.53;;;3.16;100.00
36828;BME280;22766;48.042;11.192;2024-03-25T01:50:25;94250.75;;;3.06;100.00
36828;BME280;22766;48.042;11.192;2024-03-25T01:52:53;94246.38;;;3.18;100.00
36828;BME280;22766;48.042;11.192;2024-03-25T01:55:21;94236.63;;;3.23;100.00
36828;BME280;22766;48.042;11.192;2024-03-25T01:57:48;94244.06;;;3.35;100.00
36828;BME280;22766;48.042;11.192;2024-03-25T02:00:15;94241.19;;;3.29;100.00
36828;BME280;22766;48.042;11.192;2024-03-25T02:02:45;94237.94;;;3.17;100.00
36828;BME280;22766;48.042;11.192;2024-03-25T02:05:16;94239.88;;;3.04;100.00
36828;BME280;22766;48.042;11.192;2024-03-25T02:07:43;94245.91;;;3.03;100.00
36828;BME280;22766;48.042;11.192;2024-03-25T02:10:09;94242.97;;;3.28;100.00
36828;BME280;22766;48.042;11.192;2024-03-25T02:12:36;94241.00;;;3.11;100.00
36828;BME280;22766;48.042;11.192;2024-03-25T02:15:04;94238.13;;;3.05;100.00
36828;BME280;22766;48.042;11.192;2024-03-25T02:17:31;94244.88;;;3.06;100.00
36828;BME280;22766;48.042;11.192;2024-03-25T02:19:57;94240.63;;;2.95;100.00
36828;BME280;22766;48.042;11.192;2024-03-25T02:22:22;94240.25;;;3.00;100.00
36828;BME280;22766;48.042;11.192;2024-03-25T02:24:51;94235.41;;;3.17;100.00
36828;BME280;22766;48.042;11.192;2024-03-25T02:27:18;94239.19;;;3.23;100.00
36828;BME280;22766;48.042;11.192;2024-03-25T02:29:44;94231.41;;;3.24;100.00
36828;BME280;22766;48.042;11.192;2024-03-25T02:32:10;94238.63;;;3.49;100.00
36828;BME280;22766;48.042;11.192;2024-03-25T02:34:43;94236.09;;;3.49;100.00
36828;BME280;22766;48.042;11.192;2024-03-25T02:37:10;94233.00;;;3.25;100.00
36828;BME280;22766;48.042;11.192;2024-03-25T02:39:36;94236.44;;;3.15;100.00
36828;BME280;22766;48.042;11.192;2024-03-25T02:42:05;94235.06;;;3.31;100.00
36828;BME280;22766;48.042;11.192;2024-03-25T02:44:32;94232.94;;;3.16;100.00
36828;BME280;22766;48.042;11.192;2024-03-25T02:46:58;94235.72;;;3.03;100.00
36828;BME280;22766;48.042;11.192;2024-03-25T02:49:25;94236.34;;;2.96;100.00
36828;BME280;22766;48.042;11.192;2024-03-25T02:51:51;94234.34;;;2.99;100.00
36828;BME280;22766;48.042;11.192;2024-03-25T02:54:17;94239.63;;;3.07;100.00
36828;BME280;22766;48.042;11.192;2024-03-25T02:56:43;94242.88;;;3.09;100.00
36828;BME280;22766;48.042;11.192;2024-03-25T02:59:09;94235.53;;;2.95;100.00
36828;BME280;22766;48.042;11.192;2024-03-25T03:01:35;94237.53;;;2.92;100.00
36828;BME280;22766;48.042;11.192;2024-03-25T03:04:01;94233.72;;;2.86;100.00
36828;BME280;22766;48.042;11.192;2024-03-25T03:06:27;94238.50;;;2.59;100.00
36828;BME280;22766;48.042;11.192;2024-03-25T03:08:53;94240.06;;;2.50;100.00
36828;BME280;22766;48.042;11.192;2024-03-25T03:11:18;94239.97;;;2.41;100.00
36828;BME280;22766;48.042;11.192;2024-03-25T03:13:44;94230.47;;;2.43;100.00
36828;BME280;22766;48.042;11.192;2024-03-25T03:16:10;94233.06;;;2.32;100.00
36828;BME280;22766;48.042;11.192;2024-03-25T03:18:37;94233.75;;;2.34;100.00
36828;BME280;22766;48.042;11.192;2024-03-25T03:21:03;94230.41;;;2.33;100.00
36828;BME280;22766;48.042;11.192;2024-03-25T03:23:29;94240.34;;;2.36;100.00
36828;BME280;22766;48.042;11.192;2024-03-25T03:25:56;94237.91;;;2.35;100.00
36828;BME280;22766;48.042;11.192;2024-03-25T03:28:22;94238.41;;;2.29;100.00
36828;BME280;22766;48.042;11.192;2024-03-25T03:30:49;94241.28;;;2.24;100.00
36828;BME280;22766;48.042;11.192;2024-03-25T03:33:15;94235.06;;;2.17;100.00
36828;BME280;22766;48.042;11.192;2024-03-25T03:35:40;94237.63;;;2.17;100.00
36828;BME280;22766;48.042;11.192;2024-03-25T03:38:06;94243.28;;;2.21;100.00
36828;BME280;22766;48.042;11.192;2024-03-25T03:40:32;94237.75;;;2.16;100.00
36828;BME280;22766;48.042;11.192;2024-03-25T03:42:58;94245.25;;;2.17;100.00
36828;BME280;22766;48.042;11.192;2024-03-25T03:45:25;94240.66;;;2.11;100.00
36828;BME280;22766;48.042;11.192;2024-03-25T03:47:51;94241.72;;;2.09;100.00
36828;BME280;22766;48.042;11.192;2024-03-25T03:50:17;94243.44;;;2.08;100.00
36828;BME280;22766;48.042;11.192;2024-03-25T03:52:42;94234.56;;;2.03;100.00
36828;BME280;22766;48.042;11.192;2024-03-25T03:55:08;94245.66;;;2.02;100.00
36828;BME280;22766;48.042;11.192;2024-03-25T03:57:34;94247.50;;;2.00;100.00
36828;BME280;22766;48.042;11.192;2024-03-25T04:00:01;94245.16;;;2.08;100.00
36828;BME280;22766;48.042;11.192;2024-03-25T04:02:27;94252.34;;;2.14;100.00
36828;BME280;22766;48.042;11.192;2024-03-25T04:04:54;94250.97;;;2.10;100.00
36828;BME280;22766;48.042;11.192;2024-03-25T04:07:20;94246.31;;;2.15;100.00
36828;BME280;22766;48.042;11.192;2024-03-25T04:09:46;94252.81;;;2.08;100.00
36828;BME280;22766;48.042;11.192;2024-03-25T04:12:12;94255.94;;;2.00;100.00
36828;BME280;22766;48.042;11.192;2024-03-25T04:14:37;94250.25;;;2.08;100.00
36828;BME280;22766;48.042;11.192;2024-03-25T04:17:04;94246.91;;;2.07;100.00
36828;BME280;22766;48.042;11.192;2024-03-25T04:19:30;94249.34;;;2.09;100.00
36828;BME280;22766;48.042;11.192;2024-03-25T04:21:56;94251.69;;;2.01;100.00
36828;BME280;22766;48.042;11.192;2024-03-25T04:24:22;94246.25;;;2.05;100.00
36828;BME280;22766;48.042;11.192;2024-03-25T04:26:47;94253.19;;;2.03;100.00
36828;BME280;22766;48.042;11.192;2024-03-25T04:29:15;94250.41;;;2.06;100.00
36828;BME280;22766;48.042;11.192;2024-03-25T04:31:41;94253.06;;;2.05;100.00
36828;BME280;22766;48.042;11.192;2024-03-25T04:34:07;94252.13;;;2.06;100.00
36828;BME280;22766;48.042;11.192;2024-03-25T04:36:33;94247.16;;;2.04;100.00
36828;BME280;22766;48.042;11.192;2024-03-25T04:38:59;94254.44;;;1.98;100.00
36828;BME280;22766;48.042;11.192;2024-03-25T04:41:24;94255.38;;;1.97;100.00
36828;BME280;22766;48.042;11.192;2024-03-25T04:43:50;94249.94;;;2.01;100.00
36828;BME280;22766;48.042;11.192;2024-03-25T04:46:16;94261.50;;;1.94;100.00
36828;BME280;22766;48.042;11.192;2024-03-25T04:48:42;94248.22;;;1.90;100.00
36828;BME280;22766;48.042;11.192;2024-03-25T04:51:07;94251.34;;;1.94;100.00
36828;BME280;22766;48.042;11.192;2024-03-25T04:53:34;94243.22;;;2.00;100.00
36828;BME280;22766;48.042;11.192;2024-03-25T04:56:00;94252.38;;;2.03;100.00
36828;BME280;22766;48.042;11.192;2024-03-25T04:58:26;94254.66;;;2.06;100.00
36828;BME280;22766;48.042;11.192;2024-03-25T05:00:52;94257.69;;;2.00;100.00
36828;BME280;22766;48.042;11.192;2024-03-25T05:03:18;94262.44;;;2.04;100.00
36828;BME280;22766;48.042;11.192;2024-03-25T05:05:44;94266.59;;;2.05;100.00
36828;BME280;22766;48.042;11.192;2024-03-25T05:08:10;94268.56;;;2.02;100.00
36828;BME280;22766;48.042;11.192;2024-03-25T05:10:35;94271.22;;;2.00;100.00
36828;BME280;22766;48.042;11.192;2024-03-25T05:13:01;94270.66;;;1.97;100.00
36828;BME280;22766;48.042;11.192;2024-03-25T05:15:27;94268.38;;;1.94;100.00
36828;BME280;22766;48.042;11.192;2024-03-25T05:17:54;94272.06;;;1.89;100.00
36828;BME280;22766;48.042;11.192;2024-03-25T05:20:19;94270.09;;;1.93;100.00
36828;BME280;22766;48.042;11.192;2024-03-25T05:22:47;94273.47;;;1.94;100.00
36828;BME280;22766;48.042;11.192;2024-03-25T05:25:13;94277.94;;;2.01;100.00
36828;BME280;22766;48.042;11.192;2024-03-25T05:27:39;94278.53;;;2.05;100.00
36828;BME280;22766;48.042;11.192;2024-03-25T05:30:05;94280.16;;;1.95;100.00
36828;BME280;22766;48.042;11.192;2024-03-25T05:32:31;94280.38;;;2.03;100.00
36828;BME280;22766;48.042;11.192;2024-03-25T05:34:57;94284.66;;;2.02;100.00
36828;BME280;22766;48.042;11.192;2024-03-25T05:37:23;94281.75;;;2.07;100.00
36828;BME280;22766;48.042;11.192;2024-03-25T05:39:48;94278.72;;;2.24;100.00
36828;BME280;22766;48.042;11.192;2024-03-25T05:42:15;94282.28;;;2.21;100.00
36828;BME280;22766;48.042;11.192;2024-03-25T05:44:41;94286.22;;;2.25;100.00
36828;BME280;22766;48.042;11.192;2024-03-25T05:47:06;94284.69;;;2.34;100.00
36828;BME280;22766;48.042;11.192;2024-03-25T05:49:32;94282.47;;;2.40;100.00
36828;BME280;22766;48.042;11.192;2024-03-25T05:51:58;94290.25;;;2.39;100.00
36828;BME280;22766;48.042;11.192;2024-03-25T05:54:24;94285.56;;;2.44;100.00
36828;BME280;22766;48.042;11.192;2024-03-25T05:56:50;94289.34;;;2.60;100.00
36828;BME280;22766;48.042;11.192;2024-03-25T05:59:16;94279.88;;;2.83;100.00
36828;BME280;22766;48.042;11.192;2024-03-25T06:01:42;94288.19;;;2.85;100.00
36828;BME280;22766;48.042;11.192;2024-03-25T06:04:08;94292.78;;;2.91;100.00
36828;BME280;22766;48.042;11.192;2024-03-25T06:06:33;94295.66;;;2.98;100.00
36828;BME280;22766;48.042;11.192;2024-03-25T06:08:59;94292.56;;;3.15;100.00
36828;BME280;22766;48.042;11.192;2024-03-25T06:11:25;94289.31;;;3.13;100.00
36828;BME280;22766;48.042;11.192;2024-03-25T06:13:50;94288.34;;;3.25;100.00
36828;BME280;22766;48.042;11.192;2024-03-25T06:16:17;94293.88;;;3.09;100.00
36828;BME280;22766;48.042;11.192;2024-03-25T06:18:43;94292.66;;;3.34;100.00
36828;BME280;22766;48.042;11.192;2024-03-25T06:21:09;94288.59;;;3.52;100.00
36828;BME280;22766;48.042;11.192;2024-03-25T06:23:35;94295.78;;;3.67;100.00
36828;BME280;22766;48.042;11.192;2024-03-25T06:26:00;94300.47;;;3.62;100.00
36828;BME280;22766;48.042;11.192;2024-03-25T06:28:26;94292.22;;;3.79;100.00
36828;BME280;22766;48.042;11.192;2024-03-25T06:30:52;94294.38;;;3.94;100.00
36828;BME280;22766;48.042;11.192;2024-03-25T06:33:36;94298.28;;;3.88;100.00
36828;BME280;22766;48.042;11.192;2024-03-25T06:36:21;94304.44;;;4.16;100.00
36828;BME280;22766;48.042;11.192;2024-03-25T06:38:47;94299.97;;;4.08;100.00
36828;BME280;22766;48.042;11.192;2024-03-25T06:41:14;94299.13;;;3.98;100.00
36828;BME280;22766;48.042;11.192;2024-03-25T06:43:40;94299.41;;;4.14;100.00
36828;BME280;22766;48.042;11.192;2024-03-25T06:46:06;94303.78;;;4.33;100.00
36828;BME280;22766;48.042;11.192;2024-03-25T06:48:35;94295.34;;;4.51;100.00
36828;BME280;22766;48.042;11.192;2024-03-25T06:51:04;94300.03;;;4.56;100.00
36828;BME280;22766;48.042;11.192;2024-03-25T06:53:30;94291.59;;;4.65;100.00
36828;BME280;22766;48.042;11.192;2024-03-25T06:55:57;94295.50;;;4.69;100.00
36828;BME280;22766;48.042;11.192;2024-03-25T06:58:24;94294.53;;;4.70;100.00
36828;BME280;22766;48.042;11.192;2024-03-25T07:00:51;94288.06;;;4.75;100.00
36828;BME280;22766;48.042;11.192;2024-03-25T07:03:18;94296.56;;;4.95;100.00
36828;BME280;22766;48.042;11.192;2024-03-25T07:05:52;94297.78;;;4.91;100.00
36828;BME280;22766;48.042;11.192;2024-03-25T07:08:22;94294.66;;;5.16;100.00
36828;BME280;22766;48.042;11.192;2024-03-25T07:10:48;94301.50;;;5.25;100.00
36828;BME280;22766;48.042;11.192;2024-03-25T07:13:14;94288.44;;;5.09;99.84
36828;BME280;22766;48.042;11.192;2024-03-25T07:15:40;94298.44;;;5.03;99.75
36828;BME280;22766;48.042;11.192;2024-03-25T07:18:06;94289.13;;;5.21;100.00
36828;BME280;22766;48.042;11.192;2024-03-25T07:20:32;94285.81;;;5.47;97.12
36828;BME280;22766;48.042;11.192;2024-03-25T07:22:58;94295.56;;;5.34;96.12
36828;BME280;22766;48.042;11.192;2024-03-25T07:25:24;94295.09;;;5.67;96.13
36828;BME280;22766;48.042;11.192;2024-03-25T07:27:50;94284.53;;;5.70;91.67
36828;BME280;22766;48.042;11.192;2024-03-25T07:30:19;94294.59;;;5.82;93.70
36828;BME280;22766;48.042;11.192;2024-03-25T07:32:47;94290.19;;;5.74;95.16
36828;BME280;22766;48.042;11.192;2024-03-25T07:35:13;94289.78;;;5.88;94.90
36828;BME280;22766;48.042;11.192;2024-03-25T07:37:43;94288.81;;;6.16;92.41
36828;BME280;22766;48.042;11.192;2024-03-25T07:40:09;94292.25;;;6.34;87.67
36828;BME280;22766;48.042;11.192;2024-03-25T07:42:37;94292.16;;;6.26;86.15
36828;BME280;22766;48.042;11.192;2024-03-25T07:45:04;94293.81;;;6.18;90.07
36828;BME280;22766;48.042;11.192;2024-03-25T07:47:33;94287.94;;;6.52;86.24
36828;BME280;22766;48.042;11.192;2024-03-25T07:50:00;94287.38;;;6.58;86.54
36828;BME280;22766;48.042;11.192;2024-03-25T07:52:26;94289.72;;;6.70;86.47
36828;BME280;22766;48.042;11.192;2024-03-25T07:54:53;94284.88;;;6.67;85.69
36828;BME280;22766;48.042;11.192;2024-03-25T07:57:19;94285.41;;;6.70;83.15
36828;BME280;22766;48.042;11.192;2024-03-25T07:59:47;94285.59;;;6.77;81.27
36828;BME280;22766;48.042;11.192;2024-03-25T08:02:13;94275.66;;;6.74;84.09
36828;BME280;22766;48.042;11.192;2024-03-25T08:04:39;94270.22;;;6.94;81.01
36828;BME280;22766;48.042;11.192;2024-03-25T08:07:05;94275.63;;;7.09;79.68
36828;BME280;22766;48.042;11.192;2024-03-25T08:09:31;94276.59;;;7.33;79.87
36828;BME280;22766;48.042;11.192;2024-03-25T08:11:57;94281.34;;;7.46;74.94
36828;BME280;22766;48.042;11.192;2024-03-25T08:14:23;94269.34;;;7.29;70.57
36828;BME280;22766;48.042;11.192;2024-03-25T08:16:48;94269.50;;;7.27;68.31
36828;BME280;22766;48.042;11.192;2024-03-25T08:19:15;94277.75;;;7.39;72.52
36828;BME280;22766;48.042;11.192;2024-03-25T08:21:40;94277.88;;;7.55;71.87
36828;BME280;22766;48.042;11.192;2024-03-25T08:24:06;94277.72;;;7.56;69.44
36828;BME280;22766;48.042;11.192;2024-03-25T08:26:32;94282.81;;;7.74;66.25
36828;BME280;22766;48.042;11.192;2024-03-25T08:28:58;94282.53;;;7.85;68.37
36828;BME280;22766;48.042;11.192;2024-03-25T08:31:24;94273.06;;;7.86;60.58
36828;BME280;22766;48.042;11.192;2024-03-25T08:33:50;94282.75;;;8.00;62.57
36828;BME280;22766;48.042;11.192;2024-03-25T08:36:16;94274.13;;;8.09;64.49
36828;BME280;22766;48.042;11.192;2024-03-25T08:38:44;94272.72;;;8.14;64.33
36828;BME280;22766;48.042;11.192;2024-03-25T08:41:10;94272.47;;;8.25;59.67
36828;BME280;22766;48.042;11.192;2024-03-25T08:43:36;94272.00;;;8.30;61.19
36828;BME280;22766;48.042;11.192;2024-03-25T08:46:02;94266.25;;;8.44;57.15
36828;BME280;22766;48.042;11.192;2024-03-25T08:48:29;94264.84;;;8.66;61.32
36828;BME280;22766;48.042;11.192;2024-03-25T08:50:55;94258.25;;;8.87;59.48
36828;BME280;22766;48.042;11.192;2024-03-25T08:53:21;94259.41;;;9.17;57.93
36828;BME280;22766;48.042;11.192;2024-03-25T08:55:50;94261.81;;;9.18;56.27
36828;BME280;22766;48.042;11.192;2024-03-25T08:58:16;94258.91;;;9.46;53.68
36828;BME280;22766;48.042;11.192;2024-03-25T09:00:42;94261.97;;;9.49;49.54
36828;BME280;22766;48.042;11.192;2024-03-25T09:03:08;94245.22;;;9.29;46.10
36828;BME280;22766;48.042;11.192;2024-03-25T09:05:36;94249.94;;;9.17;46.86
36828;BME280;22766;48.042;11.192;2024-03-25T09:08:08;94248.56;;;9.54;48.65
36828;BME280;22766;48.042;11.192;2024-03-25T09:10:37;94241.09;;;9.91;45.43
36828;BME280;22766;48.042;11.192;2024-03-25T09:13:22;94244.78;;;9.09;45.21
36828;BME280;22766;48.042;11.192;2024-03-25T09:15:49;94237.88;;;9.81;48.56
36828;BME280;22766;48.042;11.192;2024-03-25T09:18:15;94237.13;;;10.19;47.78
36828;BME280;22766;48.042;11.192;2024-03-25T09:20:41;94245.00;;;10.25;44.84
36828;BME280;22766;48.042;11.192;2024-03-25T09:23:07;94235.25;;;10.35;43.78
36828;BME280;22766;48.042;11.192;2024-03-25T09:25:33;94230.34;;;10.49;44.93
36828;BME280;22766;48.042;11.192;2024-03-25T09:27:58;94230.31;;;10.26;43.88
36828;BME280;22766;48.042;11.192;2024-03-25T09:30:24;94226.25;;;10.62;43.98
36828;BME280;22766;48.042;11.192;2024-03-25T09:32:50;94216.31;;;10.96;46.07
36828;BME280;22766;48.042;11.192;2024-03-25T09:35:16;94213.75;;;11.34;42.94
36828;BME280;22766;48.042;11.192;2024-03-25T09:37:41;94209.41;;;11.49;43.73
36828;BME280;22766;48.042;11.192;2024-03-25T09:40:08;94208.56;;;11.71;42.14
36828;BME280;22766;48.042;11.192;2024-03-25T09:42:49;94201.41;;;11.58;42.41
36828;BME280;22766;48.042;11.192;2024-03-25T09:45:18;94201.16;;;11.97;41.56
36828;BME280;22766;48.042;11.192;2024-03-25T09:47:47;94199.66;;;11.73;42.35
36828;BME280;22766;48.042;11.192;2024-03-25T09:50:14;94201.41;;;11.58;38.54
36828;BME280;22766;48.042;11.192;2024-03-25T09:52:48;94202.44;;;11.35;37.90
36828;BME280;22766;48.042;11.192;2024-03-25T09:55:15;94202.69;;;11.25;39.24
36828;BME280;22766;48.042;11.192;2024-03-25T09:57:45;94200.22;;;11.61;38.75
36828;BME280;22766;48.042;11.192;2024-03-25T10:00:11;94200.28;;;11.23;39.27
36828;BME280;22766;48.042;11.192;2024-03-25T10:02:43;94200.78;;;11.19;39.23
36828;BME280;22766;48.042;11.192;2024-03-25T10:05:09;94194.78;;;11.56;37.04
36828;BME280;22766;48.042;11.192;2024-03-25T10:07:35;94190.19;;;11.14;39.52
36828;BME280;22766;48.042;11.192;2024-03-25T10:10:05;94190.13;;;11.22;43.94
36828;BME280;22766;48.042;11.192;2024-03-25T10:12:31;94187.25;;;11.83;43.55
36828;BME280;22766;48.042;11.192;2024-03-25T10:14:57;94169.91;;;12.13;44.27
36828;BME280;22766;48.042;11.192;2024-03-25T10:17:26;94170.88;;;12.27;42.12
36828;BME280;22766;48.042;11.192;2024-03-25T10:19:55;94161.31;;;12.48;41.28
36828;BME280;22766;48.042;11.192;2024-03-25T10:22:20;94169.97;;;12.55;39.11
36828;BME280;22766;48.042;11.192;2024-03-25T10:24:47;94158.31;;;12.09;38.63
36828;BME280;22766;48.042;11.192;2024-03-25T10:27:20;94152.84;;;12.75;41.01
36828;BME280;22766;48.042;11.192;2024-03-25T10:29:54;94149.94;;;12.64;37.08
36828;BME280;22766;48.042;11.192;2024-03-25T10:32:23;94153.53;;;12.06;37.32
36828;BME280;22766;48.042;11.192;2024-03-25T10:34:56;94145.63;;;12.14;39.10
36828;BME280;22766;48.042;11.192;2024-03-25T10:37:24;94154.50;;;12.05;41.88
36828;BME280;22766;48.042;11.192;2024-03-25T10:39:54;94152.47;;;12.00;40.98
36828;BME280;22766;48.042;11.192;2024-03-25T10:42:23;94143.94;;;12.06;41.06
36828;BME280;22766;48.042;11.192;2024-03-25T10:44:49;94145.28;;;13.50;40.72
36828;BME280;22766;48.042;11.192;2024-03-25T10:47:25;94134.69;;;13.18;37.27
36828;BME280;22766;48.042;11.192;2024-03-25T10:49:57;94134.88;;;12.95;36.90
36828;BME280;22766;48.042;11.192;2024-03-25T10:52:27;94136.00;;;12.86;38.80
36828;BME280;22766;48.042;11.192;2024-03-25T10:54:55;94128.38;;;12.78;36.53
36828;BME280;22766;48.042;11.192;2024-03-25T10:57:22;94126.91;;;12.96;35.68
36828;BME280;22766;48.042;11.192;2024-03-25T10:59:56;94127.06;;;13.37;34.08
36828;BME280;22766;48.042;11.192;2024-03-25T11:02:22;94127.97;;;13.57;35.17
36828;BME280;22766;48.042;11.192;2024-03-25T11:04:49;94127.09;;;13.16;34.28
36828;BME280;22766;48.042;11.192;2024-03-25T11:07:17;94127.94;;;12.53;34.65
36828;BME280;22766;48.042;11.192;2024-03-25T11:09:43;94124.34;;;12.75;38.46
36828;BME280;22766;48.042;11.192;2024-03-25T11:12:12;94115.00;;;12.74;38.39
36828;BME280;22766;48.042;11.192;2024-03-25T11:14:40;94105.94;;;13.13;37.74
36828;BME280;22766;48.042;11.192;2024-03-25T11:17:16;94087.19;;;15.05;35.45
36828;BME280;22766;48.042;11.192;2024-03-25T11:19:42;94087.72;;;15.65;34.29
36828;BME280;22766;48.042;11.192;2024-03-25T11:22:10;94076.72;;;15.70;32.77
36828;BME280;22766;48.042;11.192;2024-03-25T11:24:37;94086.09;;;15.71;36.19
36828;BME280;22766;48.042;11.192;2024-03-25T11:27:06;94078.56;;;17.01;32.02
36828;BME280;22766;48.042;11.192;2024-03-25T11:29:33;94077.13;;;17.72;31.35
36828;BME280;22766;48.042;11.192;2024-03-25T11:32:06;94071.41;;;17.39;30.98
36828;BME280;22766;48.042;11.192;2024-03-25T11:34:32;94063.75;;;16.76;30.12
36828;BME280;22766;48.042;11.192;2024-03-25T11:36:57;94053.22;;;16.27;29.88
36828;BME280;22766;48.042;11.192;2024-03-25T11:39:24;94055.81;;;16.27;29.70
36828;BME280;22766;48.042;11.192;2024-03-25T11:41:54;94055.38;;;15.42;31.55
36828;BME280;22766;48.042;11.192;2024-03-25T11:44:21;94054.88;;;17.27;33.20
36828;BME280;22766;48.042;11.192;2024-03-25T11:46:51;94052.97;;;18.42;30.76
36828;BME280;22766;48.042;11.192;2024-03-25T11:49:20;94043.06;;;18.86;28.78
36828;BME280;22766;48.042;11.192;2024-03-25T11:51:46;94042.13;;;18.09;27.49
36828;BME280;22766;48.042;11.192;2024-03-25T11:54:12;94034.50;;;18.90;27.45
36828;BME280;22766;48.042;11.192;2024-03-25T11:56:40;94028.53;;;19.13;28.32
36828;BME280;22766;48.042;11.192;2024-03-25T11:59:06;94037.03;;;17.48;27.20
36828;BME280;22766;48.042;11.192;2024-03-25T12:01:32;94036.91;;;16.38;28.09
36828;BME280;22766;48.042;11.192;2024-03-25T12:04:18;94017.16;;;17.65;28.50
36828;BME280;22766;48.042;11.192;2024-03-25T12:06:45;94026.91;;;17.88;25.75
36828;BME280;22766;48.042;11.192;2024-03-25T12:09:11;94013.28;;;17.86;26.56
36828;BME280;22766;48.042;11.192;2024-03-25T12:11:55;94015.28;;;17.12;26.71
36828;BME280;22766;48.042;11.192;2024-03-25T12:14:24;94000.16;;;17.38;27.05
36828;BME280;22766;48.042;11.192;2024-03-25T12:16:53;94000.69;;;17.65;25.96
36828;BME280;22766;48.042;11.192;2024-03-25T12:19:19;93995.19;;;16.45;27.01
36828;BME280;22766;48.042;11.192;2024-03-25T12:21:46;93997.09;;;15.56;27.90
36828;BME280;22766;48.042;11.192;2024-03-25T12:24:13;93986.56;;;17.54;28.02
36828;BME280;22766;48.042;11.192;2024-03-25T12:26:39;93980.53;;;17.72;25.94
36828;BME280;22766;48.042;11.192;2024-03-25T12:29:06;93978.81;;;18.90;27.08
36828;BME280;22766;48.042;11.192;2024-03-25T12:31:32;93975.50;;;18.59;25.80
36828;BME280;22766;48.042;11.192;2024-03-25T12:33:57;93971.91;;;18.01;26.02
36828;BME280;22766;48.042;11.192;2024-03-25T12:36:23;93970.50;;;18.70;25.57
36828;BME280;22766;48.042;11.192;2024-03-25T12:38:56;93960.25;;;17.86;26.10
36828;BME280;22766;48.042;11.192;2024-03-25T12:41:24;93957.34;;;18.35;26.66
36828;BME280;22766;48.042;11.192;2024-03-25T12:43:51;93951.81;;;19.47;24.83
36828;BME280;22766;48.042;11.192;2024-03-25T12:46:17;93953.59;;;19.70;25.75
36828;BME280;22766;48.042;11.192;2024-03-25T12:48:46;93940.50;;;20.14;24.97
36828;BME280;22766;48.042;11.192;2024-03-25T12:51:13;93936.84;;;19.59;23.99